KARB/ARB METAR and TAF weather

Enter ICAO airport designator
Station Type Date Time Source
KARB METAR 2020/11/27 12:53 UTC NOAA

KARB 271253Z 22004KT 10SM BKN022 OVC027 05/03 A3007 RMK AO2 SLPNO T00500028


Station Type Date Time Source
KARB Decoded METAR 2020/11/27 12:53 UTC NOAA

ANN ARBOR MUNICIPAL AIRPORT, MI, United States (KARB) 42-13N 083-45W 251M
Nov 27, 2020 - 07:53 AM EST / 2020.11.27 1253 UTC
Wind: from the SW (220 degrees) at 5 MPH (4 KT):0
Visibility: 10 mile(s):0
Sky conditions: overcast
Temperature: 41.0 F (5.0 C)
Dew Point: 37.0 F (2.8 C)
Relative Humidity: 85%
Pressure (altimeter): 30.07 in. Hg (1018 hPa)
ob: KARB 271253Z 22004KT 10SM BKN022 OVC027 05/03 A3007 RMK AO2 SLPNO T00500028
cycle: 13

Station Type Date Time Source
KARB TAF UTC NOAA

Error!

Example: see airport list